Time;durP1;ratioP1;P1;durP2;ratioP2;P2;SDS_P1;SDS_P2;PMS_P1;PMS_P2;Temp;Humidity;BMP_temperature;BMP_pressure;BME280_temperature;BME280_humidity;BME280_pressure;Samples;Min_cycle;Max_cycle;Signal;HPM_P1;HPM_P2
2023/12/23 00:02:32;0.00;0.00;0.62;0.00;0.00;0.62;3.13;1.70;;;20.80;26.70;;;;;;2255931;61;20500;-61
2023/12/23 00:05:18;0.00;0.00;0.62;0.00;0.00;0.62;2.23;1.70;;;20.80;26.70;;;;;;2256465;61;20366;-62
2023/12/23 00:08:03;0.00;0.00;0.62;0.00;0.00;0.62;2.30;1.53;;;20.80;26.70;;;;;;2256440;61;20517;-62
2023/12/23 00:10:49;0.00;0.00;0.62;0.00;0.00;0.62;3.43;1.97;;;20.80;26.70;;;;;;2256133;61;20357;-57
2023/12/23 00:13:34;0.00;0.00;0.62;0.00;0.00;0.62;2.40;1.70;;;20.80;26.70;;;;;;2256167;61;20918;-62
2023/12/23 00:16:18;0.00;0.00;0.62;0.00;0.00;0.62;2.50;1.70;;;20.80;26.70;;;;;;2256579;61;20963;-60
2023/12/23 00:19:03;0.00;0.00;0.62;0.00;0.00;0.62;2.43;1.50;;;20.80;26.70;;;;;;2256707;61;20389;-60
2023/12/23 00:21:48;0.00;0.00;0.62;0.00;0.00;0.62;2.20;1.80;;;20.80;26.70;;;;;;2256208;61;20366;-57
2023/12/23 00:24:32;0.00;0.00;0.62;0.00;0.00;0.62;2.47;1.70;;;20.80;26.70;;;;;;2256354;61;20413;-61
2023/12/23 00:27:18;0.00;0.00;0.62;0.00;0.00;0.62;2.43;1.70;;;20.80;26.70;;;;;;2256518;61;21210;-59
2023/12/23 00:30:04;0.00;0.00;0.62;0.00;0.00;0.62;2.17;1.40;;;20.80;26.70;;;;;;2256429;61;20984;-59
2023/12/23 00:32:50;0.00;0.00;0.62;0.00;0.00;0.62;3.30;1.77;;;20.80;26.70;;;;;;2255447;61;20404;-61
2023/12/23 00:35:35;0.00;0.00;0.62;0.00;0.00;0.62;2.00;1.40;;;20.80;26.70;;;;;;2256769;61;20948;-64
2023/12/23 00:38:20;0.00;0.00;0.62;0.00;0.00;0.62;2.30;1.40;;;20.80;26.70;;;;;;2256619;61;20417;-58
2023/12/23 00:41:04;0.00;0.00;0.62;0.00;0.00;0.62;2.50;1.60;;;20.80;26.70;;;;;;2255769;61;20448;-61
2023/12/23 00:43:50;0.00;0.00;0.62;0.00;0.00;0.62;2.40;1.60;;;20.80;26.70;;;;;;2255967;61;20424;-58
2023/12/23 00:46:35;0.00;0.00;0.62;0.00;0.00;0.62;2.00;1.27;;;20.80;26.70;;;;;;2255752;61;20366;-60
2023/12/23 00:49:19;0.00;0.00;0.62;0.00;0.00;0.62;2.20;1.33;;;20.80;26.70;;;;;;2256356;61;20393;-60
2023/12/23 00:52:05;0.00;0.00;0.62;0.00;0.00;0.62;2.23;1.43;;;20.80;26.70;;;;;;2256348;61;20448;-61
2023/12/23 00:54:51;0.00;0.00;0.62;0.00;0.00;0.62;3.20;1.90;;;20.80;26.70;;;;;;2255846;61;20366;-59
2023/12/23 00:57:37;0.00;0.00;0.62;0.00;0.00;0.62;2.63;1.50;;;20.80;26.70;;;;;;2256577;61;20369;-60
2023/12/23 01:00:23;0.00;0.00;0.62;0.00;0.00;0.62;2.90;1.63;;;20.80;27.20;;;;;;2253038;61;20432;-59
2023/12/23 01:03:08;0.00;0.00;0.62;0.00;0.00;0.62;2.60;1.37;;;20.80;26.70;;;;;;2255861;61;20833;-59
2023/12/23 01:05:53;0.00;0.00;0.62;0.00;0.00;0.62;2.53;1.40;;;20.80;26.70;;;;;;2256452;61;20389;-58
2023/12/23 01:08:38;0.00;0.00;0.62;0.00;0.00;0.62;1.97;1.40;;;20.80;26.70;;;;;;2255992;61;20460;-58
2023/12/23 01:11:22;0.00;0.00;0.62;0.00;0.00;0.62;2.37;1.13;;;20.80;26.70;;;;;;2255877;61;20949;-60
2023/12/23 01:14:08;0.00;0.00;0.62;0.00;0.00;0.62;2.50;1.50;;;20.80;26.70;;;;;;2256300;61;20902;-55
2023/12/23 01:16:54;0.00;0.00;0.62;0.00;0.00;0.62;3.40;1.60;;;20.80;26.70;;;;;;2255901;61;20365;-57
2023/12/23 01:19:38;0.00;0.00;0.62;0.00;0.00;0.62;2.40;1.40;;;20.80;26.70;;;;;;2256237;61;20402;-60
2023/12/23 01:22:23;0.00;0.00;0.62;0.00;0.00;0.62;2.43;1.43;;;20.80;26.70;;;;;;2255879;61;20428;-60
2023/12/23 01:25:08;0.00;0.00;0.62;0.00;0.00;0.62;1.83;1.30;;;20.70;26.60;;;;;;2256159;61;20910;-59
2023/12/23 01:27:53;0.00;0.00;0.62;0.00;0.00;0.62;2.63;1.70;;;20.80;26.70;;;;;;2256202;61;20923;-59
2023/12/23 01:30:40;0.00;0.00;0.62;0.00;0.00;0.62;2.17;1.40;;;20.80;26.70;;;;;;2255764;61;20485;-60
2023/12/23 01:33:26;0.00;0.00;0.62;0.00;0.00;0.62;3.13;1.30;;;20.80;26.70;;;;;;2256105;61;20469;-59
2023/12/23 01:36:11;0.00;0.00;0.62;0.00;0.00;0.62;2.90;1.40;;;20.80;26.70;;;;;;2256316;61;20911;-61
2023/12/23 01:38:55;0.00;0.00;0.62;0.00;0.00;0.62;2.30;1.43;;;20.80;27.20;;;;;;2255966;61;20914;-57
2023/12/23 01:41:40;0.00;0.00;0.62;0.00;0.00;0.62;2.00;1.27;;;20.80;26.70;;;;;;2256042;61;20949;-61
2023/12/23 01:44:24;0.00;0.00;0.62;0.00;0.00;0.62;3.20;1.60;;;20.80;26.70;;;;;;2256505;61;20443;-57
2023/12/23 01:47:09;0.00;0.00;0.62;0.00;0.00;0.62;1.80;1.20;;;20.80;26.70;;;;;;2256011;61;20381;-60
2023/12/23 01:49:56;0.00;0.00;0.62;0.00;0.00;0.62;2.67;1.37;;;20.80;26.70;;;;;;2256339;61;20393;-61
2023/12/23 01:52:41;0.00;0.00;0.62;0.00;0.00;0.62;4.20;1.20;;;20.80;26.60;;;;;;2255399;61;20373;-56
2023/12/23 01:55:27;0.00;0.00;0.62;0.00;0.00;0.62;3.07;1.50;;;20.80;26.70;;;;;;2256516;61;20366;-59
2023/12/23 01:58:13;0.00;0.00;0.62;0.00;0.00;0.62;2.80;1.30;;;20.80;26.60;;;;;;2256425;61;20362;-62
2023/12/23 02:00:58;0.00;0.00;0.62;0.00;0.00;0.62;1.83;1.30;;;20.80;26.60;;;;;;2255872;61;20392;-57
2023/12/23 02:03:43;0.00;0.00;0.62;0.00;0.00;0.62;2.23;1.43;;;20.80;26.70;;;;;;2255467;61;20381;-61
2023/12/23 02:06:29;0.00;0.00;0.62;0.00;0.00;0.62;3.37;1.47;;;20.80;26.70;;;;;;2256458;61;20357;-56
2023/12/23 02:09:14;0.00;0.00;0.62;0.00;0.00;0.62;2.27;1.23;;;20.80;26.70;;;;;;2255839;61;20432;-59
2023/12/23 02:12:07;0.00;0.00;0.62;0.00;0.00;0.62;2.60;1.30;;;20.80;26.70;;;;;;2256093;61;20389;-57
2023/12/23 02:15:02;0.00;0.00;0.62;0.00;0.00;0.62;2.10;1.07;;;20.80;26.60;;;;;;2256676;61;20370;-60
2023/12/23 02:17:47;0.00;0.00;0.62;0.00;0.00;0.62;1.80;1.20;;;20.70;26.50;;;;;;2256216;61;20438;-57
2023/12/23 02:20:32;0.00;0.00;0.62;0.00;0.00;0.62;2.23;1.50;;;20.80;26.60;;;;;;2256453;61;20918;-59
2023/12/23 02:23:18;0.00;0.00;0.62;0.00;0.00;0.62;2.30;1.20;;;20.70;26.60;;;;;;2255456;61;20382;-61
2023/12/23 02:26:05;0.00;0.00;0.62;0.00;0.00;0.62;2.37;1.40;;;20.70;26.50;;;;;;2255919;61;20373;-60
2023/12/23 02:28:52;0.00;0.00;0.62;0.00;0.00;0.62;2.37;1.17;;;20.70;26.50;;;;;;2256184;61;20444;-61
2023/12/23 02:31:37;0.00;0.00;0.62;0.00;0.00;0.62;1.90;1.00;;;20.70;26.50;;;;;;2255921;61;20386;-59
2023/12/23 02:34:22;0.00;0.00;0.62;0.00;0.00;0.62;2.07;1.03;;;20.70;26.50;;;;;;2256932;61;20370;-59
2023/12/23 02:37:07;0.00;0.00;0.62;0.00;0.00;0.62;1.90;1.37;;;20.80;26.60;;;;;;2256423;61;20821;-56
2023/12/23 02:39:53;0.00;0.00;0.62;0.00;0.00;0.62;2.63;1.30;;;20.70;26.50;;;;;;2256007;61;20793;-61
2023/12/23 02:42:37;0.00;0.00;0.62;0.00;0.00;0.62;1.80;1.10;;;20.70;26.50;;;;;;2253097;61;20390;-57
2023/12/23 02:45:23;0.00;0.00;0.62;0.00;0.00;0.62;2.30;1.30;;;20.70;26.50;;;;;;2591954;45;20369;-59
2023/12/23 02:48:07;0.00;0.00;0.62;0.00;0.00;0.62;2.03;1.13;;;20.70;26.50;;;;;;2256987;61;20366;-60
2023/12/23 02:50:52;0.00;0.00;0.62;0.00;0.00;0.62;2.30;1.00;;;20.70;26.50;;;;;;2256927;61;20977;-61
2023/12/23 02:53:36;0.00;0.00;0.62;0.00;0.00;0.62;2.33;1.23;;;20.70;26.50;;;;;;2256093;61;20365;-58
2023/12/23 02:56:22;0.00;0.00;0.62;0.00;0.00;0.62;1.90;1.00;;;20.70;26.50;;;;;;2256452;61;20530;-62
2023/12/23 02:59:06;0.00;0.00;0.62;0.00;0.00;0.62;2.13;1.03;;;20.70;26.50;;;;;;2256951;61;20926;-61
2023/12/23 03:01:53;0.00;0.00;0.62;0.00;0.00;0.62;3.57;1.20;;;20.70;26.50;;;;;;2256604;61;20393;-59
2023/12/23 03:04:37;0.00;0.00;0.62;0.00;0.00;0.62;3.17;1.23;;;20.70;26.50;;;;;;2256440;61;20880;-59
2023/12/23 03:07:22;0.00;0.00;0.62;0.00;0.00;0.62;1.33;0.70;;;20.70;26.50;;;;;;2256015;61;20393;-58
2023/12/23 03:10:08;0.00;0.00;0.62;0.00;0.00;0.62;2.30;1.30;;;20.70;26.50;;;;;;2256789;61;20484;-59
2023/12/23 03:12:54;0.00;0.00;0.62;0.00;0.00;0.62;2.60;1.20;;;20.70;26.50;;;;;;2256314;61;20370;-61
2023/12/23 03:15:38;0.00;0.00;0.62;0.00;0.00;0.62;2.67;1.10;;;20.70;26.50;;;;;;2256585;61;20470;-58
2023/12/23 03:18:23;0.00;0.00;0.62;0.00;0.00;0.62;2.30;0.80;;;20.70;26.50;;;;;;2256714;61;20460;-60
2023/12/23 03:21:07;0.00;0.00;0.62;0.00;0.00;0.62;3.27;1.30;;;20.70;26.50;;;;;;2256793;61;20449;-59
2023/12/23 03:23:53;0.00;0.00;0.62;0.00;0.00;0.62;2.10;1.00;;;20.70;26.50;;;;;;2256309;61;20366;-60
2023/12/23 03:26:38;0.00;0.00;0.62;0.00;0.00;0.62;2.47;1.10;;;20.70;26.50;;;;;;2256822;61;20370;-57
2023/12/23 03:29:23;0.00;0.00;0.62;0.00;0.00;0.62;3.20;1.00;;;20.70;26.50;;;;;;2255583;61;20402;-58
2023/12/23 03:32:08;0.00;0.00;0.62;0.00;0.00;0.62;1.97;1.00;;;20.70;26.50;;;;;;2256336;61;20362;-61
2023/12/23 03:34:53;0.00;0.00;0.62;0.00;0.00;0.62;1.63;0.83;;;20.70;26.50;;;;;;2256208;61;20385;-59
2023/12/23 03:37:37;0.00;0.00;0.62;0.00;0.00;0.62;1.60;1.00;;;20.70;26.50;;;;;;2256366;61;20887;-60
2023/12/23 03:40:22;0.00;0.00;0.62;0.00;0.00;0.62;2.23;0.90;;;20.70;26.50;;;;;;2256035;61;20926;-61
2023/12/23 03:43:06;0.00;0.00;0.62;0.00;0.00;0.62;1.70;1.00;;;20.60;26.40;;;;;;2256044;61;20438;-61
2023/12/23 03:45:53;0.00;0.00;0.62;0.00;0.00;0.62;1.80;0.77;;;20.70;26.50;;;;;;2256465;61;20361;-55
2023/12/23 03:48:38;0.00;0.00;0.62;0.00;0.00;0.62;1.60;0.80;;;20.70;26.50;;;;;;2256142;61;20949;-62
2023/12/23 03:51:23;0.00;0.00;0.62;0.00;0.00;0.62;2.10;1.10;;;20.70;26.50;;;;;;2256232;61;20366;-60
2023/12/23 03:54:08;0.00;0.00;0.62;0.00;0.00;0.62;2.50;1.00;;;20.70;26.40;;;;;;2256694;61;20477;-59
2023/12/23 03:56:52;0.00;0.00;0.62;0.00;0.00;0.62;1.97;0.90;;;20.70;26.50;;;;;;2256643;61;20368;-58
2023/12/23 03:59:39;0.00;0.00;0.62;0.00;0.00;0.62;1.57;0.90;;;20.70;26.50;;;;;;2256470;61;20952;-58
2023/12/23 04:02:25;0.00;0.00;0.62;0.00;0.00;0.62;1.70;0.97;;;20.60;26.40;;;;;;2255974;61;20416;-61
2023/12/23 04:05:10;0.00;0.00;0.62;0.00;0.00;0.62;1.60;1.00;;;20.60;26.40;;;;;;2256694;61;20416;-59
2023/12/23 04:07:54;0.00;0.00;0.62;0.00;0.00;0.62;2.27;1.10;;;20.60;26.40;;;;;;2256261;61;20885;-60
2023/12/23 04:10:39;0.00;0.00;0.62;0.00;0.00;0.62;1.77;0.97;;;20.60;26.40;;;;;;2256122;61;21020;-57
2023/12/23 04:13:23;0.00;0.00;0.62;0.00;0.00;0.62;2.33;1.17;;;20.60;26.40;;;;;;2255807;61;20393;-58
2023/12/23 04:16:08;0.00;0.00;0.62;0.00;0.00;0.62;1.70;0.90;;;20.60;26.40;;;;;;2256839;61;20401;-60
2023/12/23 04:18:54;0.00;0.00;0.62;0.00;0.00;0.62;2.10;1.13;;;20.60;26.40;;;;;;2256611;61;20378;-60
2023/12/23 04:21:39;0.00;0.00;0.62;0.00;0.00;0.62;2.40;0.93;;;20.60;26.40;;;;;;2255630;61;20404;-61
2023/12/23 04:24:26;0.00;0.00;0.62;0.00;0.00;0.62;2.03;0.90;;;20.60;26.40;;;;;;2256320;61;20450;-60
2023/12/23 04:27:10;0.00;0.00;0.62;0.00;0.00;0.62;1.80;0.80;;;20.60;26.40;;;;;;2256153;61;20365;-56
2023/12/23 04:29:55;0.00;0.00;0.62;0.00;0.00;0.62;1.60;0.97;;;20.60;26.40;;;;;;2255703;61;20478;-60
2023/12/23 04:32:39;0.00;0.00;0.62;0.00;0.00;0.62;2.07;0.87;;;20.60;26.40;;;;;;2256376;61;20416;-60
2023/12/23 04:35:26;0.00;0.00;0.62;0.00;0.00;0.62;1.70;0.90;;;20.60;26.40;;;;;;2256655;61;20370;-58
2023/12/23 04:38:11;0.00;0.00;0.62;0.00;0.00;0.62;1.90;1.07;;;20.60;26.40;;;;;;2256299;61;20449;-60
2023/12/23 04:40:55;0.00;0.00;0.62;0.00;0.00;0.62;1.90;0.80;;;20.60;26.40;;;;;;2256255;61;20377;-57
2023/12/23 04:43:40;0.00;0.00;0.62;0.00;0.00;0.62;1.77;1.10;;;20.60;26.40;;;;;;2254516;61;20633;-61
2023/12/23 04:46:25;0.00;0.00;0.62;0.00;0.00;0.62;2.10;0.90;;;20.60;26.40;;;;;;2256234;61;20358;-60
2023/12/23 04:49:10;0.00;0.00;0.62;0.00;0.00;0.62;1.90;1.00;;;20.60;26.40;;;;;;2255838;61;20945;-60
2023/12/23 04:51:56;0.00;0.00;0.62;0.00;0.00;0.62;2.10;1.00;;;20.60;26.40;;;;;;2255885;61;20385;-60
2023/12/23 04:54:40;0.00;0.00;0.62;0.00;0.00;0.62;1.97;1.13;;;20.60;26.40;;;;;;2256634;61;20505;-58
2023/12/23 04:57:26;0.00;0.00;0.62;0.00;0.00;0.62;1.90;1.00;;;20.60;26.40;;;;;;2255751;61;20378;-58
2023/12/23 05:00:12;0.00;0.00;0.62;0.00;0.00;0.62;1.70;0.80;;;20.60;26.40;;;;;;2255855;61;20497;-57
2023/12/23 05:02:56;0.00;0.00;0.62;0.00;0.00;0.62;1.90;0.90;;;20.60;26.40;;;;;;2255529;61;20372;-59
2023/12/23 05:05:42;0.00;0.00;0.62;0.00;0.00;0.62;2.63;0.90;;;20.60;26.40;;;;;;2255658;61;20387;-62
2023/12/23 05:08:29;0.00;0.00;0.62;0.00;0.00;0.62;1.67;1.20;;;20.60;26.40;;;;;;2256075;61;20370;-61
2023/12/23 05:11:14;0.00;0.00;0.62;0.00;0.00;0.62;1.70;0.80;;;20.60;26.40;;;;;;2256072;61;20369;-59
2023/12/23 05:13:59;0.00;0.00;0.62;0.00;0.00;0.62;1.83;0.90;;;20.60;26.40;;;;;;2255442;61;20774;-61
2023/12/23 05:16:43;0.00;0.00;0.62;0.00;0.00;0.62;2.20;0.93;;;20.60;26.90;;;;;;2255983;61;20365;-61
2023/12/23 05:19:28;0.00;0.00;0.62;0.00;0.00;0.62;1.97;0.93;;;20.60;26.40;;;;;;2256177;61;20413;-60
2023/12/23 05:22:12;0.00;0.00;0.62;0.00;0.00;0.62;1.90;0.90;;;20.60;26.40;;;;;;2255446;61;20454;-59
2023/12/23 05:24:58;0.00;0.00;0.62;0.00;0.00;0.62;1.80;0.90;;;20.60;26.40;;;;;;2256437;61;20361;-59
2023/12/23 05:27:43;0.00;0.00;0.62;0.00;0.00;0.62;1.80;0.80;;;20.60;26.40;;;;;;2255598;61;20381;-59
2023/12/23 05:30:28;0.00;0.00;0.62;0.00;0.00;0.62;1.80;0.90;;;20.50;26.30;;;;;;2255874;61;20444;-61
2023/12/23 05:33:13;0.00;0.00;0.62;0.00;0.00;0.62;1.53;0.90;;;20.60;26.40;;;;;;2256016;61;20765;-60
2023/12/23 05:35:57;0.00;0.00;0.62;0.00;0.00;0.62;2.03;0.90;;;20.60;26.40;;;;;;2256177;61;20362;-61
2023/12/23 05:38:41;0.00;0.00;0.62;0.00;0.00;0.62;2.13;1.13;;;20.60;26.40;;;;;;2256294;61;20473;-60
2023/12/23 05:41:27;0.00;0.00;0.62;0.00;0.00;0.62;1.77;1.00;;;20.60;26.40;;;;;;2256219;61;20753;-60
2023/12/23 05:44:12;0.00;0.00;0.62;0.00;0.00;0.62;1.53;0.93;;;20.60;26.90;;;;;;2255954;61;20409;-59
2023/12/23 05:46:56;0.00;0.00;0.62;0.00;0.00;0.62;1.87;0.97;;;20.60;26.40;;;;;;2256375;61;20417;-59
2023/12/23 05:49:41;0.00;0.00;0.62;0.00;0.00;0.62;1.40;0.70;;;20.60;26.40;;;;;;2255800;61;20393;-62
2023/12/23 05:52:25;0.00;0.00;0.62;0.00;0.00;0.62;1.70;0.80;;;20.60;26.40;;;;;;2256030;61;20841;-59
2023/12/23 05:55:10;0.00;0.00;0.62;0.00;0.00;0.62;1.60;0.70;;;20.60;26.40;;;;;;2256308;61;20366;-58
2023/12/23 05:57:56;0.00;0.00;0.62;0.00;0.00;0.62;2.37;0.80;;;20.60;26.40;;;;;;2255983;61;20362;-60
2023/12/23 06:00:40;0.00;0.00;0.62;0.00;0.00;0.62;1.50;0.80;;;20.60;26.40;;;;;;2256478;61;20386;-59
2023/12/23 06:03:25;0.00;0.00;0.62;0.00;0.00;0.62;1.63;1.00;;;20.60;26.40;;;;;;2255824;61;20998;-56
2023/12/23 06:06:10;0.00;0.00;0.62;0.00;0.00;0.62;2.10;0.90;;;20.60;26.40;;;;;;2256729;61;20874;-61
2023/12/23 06:08:55;0.00;0.00;0.62;0.00;0.00;0.62;2.00;1.10;;;20.60;26.40;;;;;;2256900;61;20972;-59
2023/12/23 06:11:39;0.00;0.00;0.62;0.00;0.00;0.62;1.70;0.90;;;20.60;26.40;;;;;;2256343;61;20361;-59
2023/12/23 06:14:25;0.00;0.00;0.62;0.00;0.00;0.62;1.93;1.00;;;20.60;26.40;;;;;;2256655;61;20886;-55
2023/12/23 06:17:10;0.00;0.00;0.62;0.00;0.00;0.62;1.53;0.70;;;20.60;26.40;;;;;;2256963;61;20580;-58
2023/12/23 06:19:54;0.00;0.00;0.62;0.00;0.00;0.62;1.40;0.80;;;20.60;26.40;;;;;;2256516;61;20374;-59
2023/12/23 06:22:39;0.00;0.00;0.62;0.00;0.00;0.62;3.40;1.00;;;20.60;26.40;;;;;;2256781;61;20381;-59
2023/12/23 06:25:23;0.00;0.00;0.62;0.00;0.00;0.62;1.83;1.00;;;20.60;26.40;;;;;;2257036;61;20382;-58
2023/12/23 06:28:08;0.00;0.00;0.62;0.00;0.00;0.62;1.40;0.70;;;20.50;26.30;;;;;;2256682;61;20366;-61
2023/12/23 06:30:54;0.00;0.00;0.62;0.00;0.00;0.62;2.23;0.90;;;20.60;26.40;;;;;;2256447;61;20419;-61
2023/12/23 06:33:38;0.00;0.00;0.62;0.00;0.00;0.62;1.80;0.70;;;20.60;26.40;;;;;;2256749;61;20374;-56
2023/12/23 06:36:23;0.00;0.00;0.62;0.00;0.00;0.62;1.30;0.70;;;20.60;26.40;;;;;;2256911;61;20365;-57
2023/12/23 06:39:07;0.00;0.00;0.62;0.00;0.00;0.62;1.40;0.70;;;20.60;26.40;;;;;;2257015;61;20474;-59
2023/12/23 06:41:52;0.00;0.00;0.62;0.00;0.00;0.62;1.53;0.60;;;20.60;26.40;;;;;;2256135;61;20369;-61
2023/12/23 06:44:36;0.00;0.00;0.62;0.00;0.00;0.62;2.00;0.80;;;20.60;26.40;;;;;;2256825;61;21396;-61
2023/12/23 06:47:22;0.00;0.00;0.62;0.00;0.00;0.62;1.93;0.80;;;20.60;26.40;;;;;;2256816;61;20373;-61
2023/12/23 06:50:08;0.00;0.00;0.62;0.00;0.00;0.62;1.93;1.00;;;20.60;26.40;;;;;;2256557;61;20934;-57
2023/12/23 06:52:53;0.00;0.00;0.62;0.00;0.00;0.62;1.40;0.73;;;20.60;26.40;;;;;;2256431;61;20422;-59
2023/12/23 06:55:37;0.00;0.00;0.62;0.00;0.00;0.62;2.00;1.00;;;20.60;26.40;;;;;;2256945;61;20381;-61
2023/12/23 06:58:22;0.00;0.00;0.62;0.00;0.00;0.62;1.60;0.87;;;20.60;26.40;;;;;;2256528;61;20394;-62
2023/12/23 07:01:08;0.00;0.00;0.62;0.00;0.00;0.62;1.40;0.60;;;20.60;26.50;;;;;;2256802;61;20369;-60
2023/12/23 07:03:54;0.00;0.00;0.62;0.00;0.00;0.62;1.50;0.80;;;20.50;26.40;;;;;;2255624;61;20365;-61
2023/12/23 07:06:38;0.00;0.00;0.62;0.00;0.00;0.62;1.60;0.80;;;20.60;26.90;;;;;;2256908;61;20829;-60
2023/12/23 07:09:23;0.00;0.00;0.62;0.00;0.00;0.62;2.13;0.90;;;20.50;26.40;;;;;;2256629;61;20863;-60
2023/12/23 07:12:08;0.00;0.00;0.62;0.00;0.00;0.62;1.80;0.60;;;20.60;26.50;;;;;;2256144;61;20508;-62
2023/12/23 07:14:53;0.00;0.00;0.62;0.00;0.00;0.62;1.87;0.73;;;20.50;26.40;;;;;;2256807;61;20362;-60
2023/12/23 07:17:38;0.00;0.00;0.62;0.00;0.00;0.62;1.50;0.87;;;20.60;26.40;;;;;;2256818;61;20546;-60
2023/12/23 07:20:24;0.00;0.00;0.62;0.00;0.00;0.62;1.70;0.90;;;20.60;26.40;;;;;;2256330;61;20432;-60
2023/12/23 07:23:09;0.00;0.00;0.62;0.00;0.00;0.62;1.37;0.67;;;20.50;26.40;;;;;;2256448;61;20512;-58
2023/12/23 07:25:53;0.00;0.00;0.62;0.00;0.00;0.62;2.00;0.80;;;20.50;26.40;;;;;;2256246;61;20362;-61
2023/12/23 07:28:38;0.00;0.00;0.62;0.00;0.00;0.62;1.47;0.70;;;20.50;26.40;;;;;;2256699;61;20438;-57
2023/12/23 07:31:23;0.00;0.00;0.62;0.00;0.00;0.62;1.70;0.80;;;20.60;26.40;;;;;;2256759;61;20366;-60
2023/12/23 07:34:08;0.00;0.00;0.62;0.00;0.00;0.62;1.80;0.80;;;20.50;26.40;;;;;;2256413;61;20397;-58
2023/12/23 07:36:53;0.00;0.00;0.62;0.00;0.00;0.62;1.60;0.80;;;20.50;26.40;;;;;;2256934;61;20366;-56
2023/12/23 07:39:38;0.00;0.00;0.62;0.00;0.00;0.62;1.60;0.80;;;20.50;26.40;;;;;;2256686;61;20941;-60
2023/12/23 07:42:23;0.00;0.00;0.62;0.00;0.00;0.62;1.40;0.70;;;20.50;26.40;;;;;;2255886;61;20366;-60
2023/12/23 07:45:09;0.00;0.00;0.62;0.00;0.00;0.62;2.03;1.10;;;20.50;26.40;;;;;;2256911;61;20901;-61
2023/12/23 07:47:53;0.00;0.00;0.62;0.00;0.00;0.62;1.70;0.90;;;20.50;26.40;;;;;;2256593;61;20819;-60
2023/12/23 07:50:38;0.00;0.00;0.62;0.00;0.00;0.62;2.40;0.80;;;20.50;26.40;;;;;;2256713;61;20964;-61
2023/12/23 07:53:24;0.00;0.00;0.62;0.00;0.00;0.62;1.73;1.00;;;20.50;26.40;;;;;;2256127;61;21023;-58
2023/12/23 07:56:08;0.00;0.00;0.62;0.00;0.00;0.62;2.47;1.37;;;20.50;26.40;;;;;;2256303;61;20358;-58
2023/12/23 07:58:53;0.00;0.00;0.62;0.00;0.00;0.62;2.13;1.13;;;20.50;26.40;;;;;;2256445;61;20937;-55
2023/12/23 08:01:43;0.00;0.00;0.62;0.00;0.00;0.62;1.90;1.30;;;20.50;26.40;;;;;;2256287;61;20926;-59
2023/12/23 08:04:28;0.00;0.00;0.62;0.00;0.00;0.62;1.80;1.10;;;20.50;26.40;;;;;;2255832;61;20427;-61
2023/12/23 08:07:13;0.00;0.00;0.62;0.00;0.00;0.62;1.73;0.93;;;20.50;26.40;;;;;;2256787;61;20381;-61
2023/12/23 08:09:58;0.00;0.00;0.62;0.00;0.00;0.62;2.03;1.00;;;20.50;26.40;;;;;;2256691;61;20397;-58
2023/12/23 08:12:44;0.00;0.00;0.62;0.00;0.00;0.62;2.10;1.17;;;20.50;26.40;;;;;;2256462;61;20401;-59
2023/12/23 08:15:28;0.00;0.00;0.62;0.00;0.00;0.62;2.10;1.23;;;20.50;26.40;;;;;;2256676;61;20416;-58
2023/12/23 08:18:13;0.00;0.00;0.62;0.00;0.00;0.62;2.20;1.10;;;20.50;26.40;;;;;;2256407;61;20370;-59
2023/12/23 08:20:57;0.00;0.00;0.62;0.00;0.00;0.62;3.23;1.27;;;20.50;26.40;;;;;;2256372;61;20362;-61
2023/12/23 08:23:42;0.00;0.00;0.62;0.00;0.00;0.62;2.13;1.13;;;20.50;26.50;;;;;;2256397;61;20422;-59
2023/12/23 08:26:28;0.00;0.00;0.62;0.00;0.00;0.62;2.23;1.33;;;20.50;26.40;;;;;;2256429;61;20362;-60
2023/12/23 08:29:12;0.00;0.00;0.62;0.00;0.00;0.62;2.90;1.27;;;20.50;26.50;;;;;;2256610;61;20389;-58
2023/12/23 08:31:57;0.00;0.00;0.62;0.00;0.00;0.62;2.77;1.73;;;20.50;26.40;;;;;;2255729;61;20514;-59
2023/12/23 08:34:46;0.00;0.00;0.62;0.00;0.00;0.62;2.40;1.30;;;20.50;26.50;;;;;;2256406;61;20362;-58
2023/12/23 08:37:30;0.00;0.00;0.62;0.00;0.00;0.62;1.90;1.20;;;20.50;26.50;;;;;;2256517;61;20767;-59
2023/12/23 08:40:15;0.00;0.00;0.62;0.00;0.00;0.62;2.10;1.40;;;20.50;26.50;;;;;;2256197;61;20470;-60
2023/12/23 08:43:01;0.00;0.00;0.62;0.00;0.00;0.62;2.83;1.77;;;20.50;26.50;;;;;;2255812;61;20370;-61
2023/12/23 08:45:46;0.00;0.00;0.62;0.00;0.00;0.62;2.13;1.33;;;20.50;26.50;;;;;;2256487;61;20389;-57
2023/12/23 08:48:31;0.00;0.00;0.62;0.00;0.00;0.62;3.30;1.53;;;20.50;26.50;;;;;;2256238;61;20416;-57
2023/12/23 08:51:16;0.00;0.00;0.62;0.00;0.00;0.62;1.90;1.20;;;20.50;26.50;;;;;;2256565;61;20362;-60
2023/12/23 08:54:00;0.00;0.00;0.62;0.00;0.00;0.62;2.40;1.53;;;20.50;26.50;;;;;;2256739;61;20823;-62
2023/12/23 08:56:44;0.00;0.00;0.62;0.00;0.00;0.62;2.87;1.73;;;20.50;26.50;;;;;;2256288;61;20362;-62
2023/12/23 08:59:30;0.00;0.00;0.62;0.00;0.00;0.62;2.37;1.67;;;20.50;26.50;;;;;;2256494;61;20785;-66
2023/12/23 09:02:15;0.00;0.00;0.62;0.00;0.00;0.62;2.27;1.30;;;20.50;26.50;;;;;;2255921;61;20365;-60
2023/12/23 09:05:00;0.00;0.00;0.62;0.00;0.00;0.62;2.30;1.43;;;20.50;26.50;;;;;;2256333;61;20960;-61
2023/12/23 09:07:44;0.00;0.00;0.62;0.00;0.00;0.62;2.10;1.40;;;20.50;26.50;;;;;;2256622;61;20381;-61
2023/12/23 09:10:29;0.00;0.00;0.62;0.00;0.00;0.62;2.30;1.47;;;20.50;26.50;;;;;;2256187;61;20486;-61
2023/12/23 09:13:14;0.00;0.00;0.62;0.00;0.00;0.62;2.40;1.40;;;20.50;26.50;;;;;;2256371;61;20408;-60
2023/12/23 09:16:05;0.00;0.00;0.62;0.00;0.00;0.62;2.83;1.87;;;20.50;26.50;;;;;;2256483;61;20778;-61
2023/12/23 09:18:50;0.00;0.00;0.62;0.00;0.00;0.62;1.83;1.20;;;20.50;27.00;;;;;;2256149;61;20436;-61
2023/12/23 09:21:34;0.00;0.00;0.62;0.00;0.00;0.62;3.67;1.67;;;20.50;26.50;;;;;;2255953;61;20361;-55
2023/12/23 09:24:19;0.00;0.00;0.62;0.00;0.00;0.62;2.40;1.40;;;20.50;26.50;;;;;;2256359;61;20896;-54
2023/12/23 09:27:04;0.00;0.00;0.62;0.00;0.00;0.62;2.50;1.60;;;20.50;26.50;;;;;;2256368;61;20505;-65
2023/12/23 09:29:49;0.00;0.00;0.62;0.00;0.00;0.62;2.40;1.73;;;20.50;26.50;;;;;;2256677;61;20437;-59
2023/12/23 09:32:35;0.00;0.00;0.62;0.00;0.00;0.62;2.20;1.40;;;20.50;26.50;;;;;;2255494;61;20905;-60
2023/12/23 09:35:19;0.00;0.00;0.62;0.00;0.00;0.62;3.23;2.03;;;20.50;26.50;;;;;;2256329;61;20378;-58
2023/12/23 09:38:04;0.00;0.00;0.62;0.00;0.00;0.62;2.87;1.67;;;20.50;26.50;;;;;;2256524;61;20803;-61
2023/12/23 09:40:49;0.00;0.00;0.62;0.00;0.00;0.62;3.10;2.13;;;20.50;27.00;;;;;;2256160;61;20385;-59
2023/12/23 09:43:34;0.00;0.00;0.62;0.00;0.00;0.62;3.17;1.90;;;20.50;27.00;;;;;;2256081;61;20365;-58
2023/12/23 09:46:19;0.00;0.00;0.62;0.00;0.00;0.62;4.37;2.90;;;20.50;26.50;;;;;;2256374;61;20453;-58
2023/12/23 09:49:06;0.00;0.00;0.62;0.00;0.00;0.62;3.97;3.17;;;20.50;26.50;;;;;;2256126;61;20390;-58
2023/12/23 09:51:50;0.00;0.00;0.62;0.00;0.00;0.62;3.57;2.87;;;20.50;26.50;;;;;;2256036;61;20898;-57
2023/12/23 09:54:41;0.00;0.00;0.62;0.00;0.00;0.62;3.97;3.00;;;20.50;26.50;;;;;;2256111;61;20792;-58
2023/12/23 09:57:26;0.00;0.00;0.62;0.00;0.00;0.62;4.77;3.00;;;20.50;26.50;;;;;;2256492;61;20667;-58
2023/12/23 10:00:12;0.00;0.00;0.62;0.00;0.00;0.62;5.93;3.50;;;20.60;26.60;;;;;;2256239;61;20378;-59
2023/12/23 10:02:59;0.00;0.00;0.62;0.00;0.00;0.62;4.20;3.47;;;20.50;26.50;;;;;;2255701;61;20370;-60
2023/12/23 10:05:45;0.00;0.00;0.62;0.00;0.00;0.62;5.17;3.70;;;20.50;26.50;;;;;;2256350;61;20377;-61
2023/12/23 10:08:29;0.00;0.00;0.62;0.00;0.00;0.62;5.10;3.47;;;20.50;26.50;;;;;;2256089;61;20402;-59
2023/12/23 10:11:14;0.00;0.00;0.62;0.00;0.00;0.62;5.60;4.40;;;20.50;26.50;;;;;;2256638;61;20358;-59
2023/12/23 10:13:59;0.00;0.00;0.62;0.00;0.00;0.62;5.10;3.60;;;20.50;26.50;;;;;;2255734;61;20361;-59
2023/12/23 10:16:45;0.00;0.00;0.62;0.00;0.00;0.62;4.07;3.20;;;20.50;26.50;;;;;;2256140;61;20815;-58
2023/12/23 10:19:31;0.00;0.00;0.62;0.00;0.00;0.62;4.97;3.50;;;20.50;26.50;;;;;;2256371;61;20817;-61
2023/12/23 10:22:18;0.00;0.00;0.62;0.00;0.00;0.62;5.10;3.80;;;20.50;26.50;;;;;;2255772;61;20361;-61
2023/12/23 10:25:03;0.00;0.00;0.62;0.00;0.00;0.62;4.13;3.10;;;20.50;26.50;;;;;;2256054;61;20940;-61
2023/12/23 10:27:54;0.00;0.00;0.62;0.00;0.00;0.62;4.67;3.60;;;20.50;26.50;;;;;;2256360;61;20397;-59
2023/12/23 10:30:45;0.00;0.00;0.62;0.00;0.00;0.62;4.27;3.07;;;20.50;26.50;;;;;;2256476;61;20377;-60
2023/12/23 10:33:35;0.00;0.00;0.62;0.00;0.00;0.62;5.90;4.20;;;20.50;26.50;;;;;;2256031;61;20409;-58
2023/12/23 10:36:19;0.00;0.00;0.62;0.00;0.00;0.62;5.23;3.47;;;20.50;26.50;;;;;;2256355;61;20413;-59
2023/12/23 10:39:10;0.00;0.00;0.62;0.00;0.00;0.62;4.93;3.57;;;20.50;26.50;;;;;;2255847;61;20382;-59
2023/12/23 10:42:02;0.00;0.00;0.62;0.00;0.00;0.62;4.67;3.40;;;20.50;26.50;;;;;;2255902;61;20394;-60
2023/12/23 10:44:48;0.00;0.00;0.62;0.00;0.00;0.62;3.30;2.67;;;20.50;26.50;;;;;;2256174;61;20361;-57
2023/12/23 10:47:33;0.00;0.00;0.62;0.00;0.00;0.62;4.50;3.47;;;20.50;26.50;;;;;;2255756;61;20361;-60
2023/12/23 10:50:18;0.00;0.00;0.62;0.00;0.00;0.62;4.40;2.67;;;20.50;26.60;;;;;;2256211;61;20811;-62
2023/12/23 10:53:05;0.00;0.00;0.62;0.00;0.00;0.62;5.10;3.53;;;20.50;26.60;;;;;;2256245;61;20409;-60